Stallovarre — LHBG — position and weather

sailwx.info

Track history (hours):
 
Tides and Currents Weather Stations Pressure Air Temp Water Temp Dewpoint Dewpoint Depression Visibility Wind Speed Wind Dir Waves Ship Positions

Stallovarre

Last reported at 2016-Jul-27 19:32 UTC. Time now 2016-Jul-28 00:52 UTC.
Position N 59°16' E 006°10'.

Length 54 m; draft 5 m.

MMSI: 257374400.

Date/timePositionNaut miles runAvg speedWind from/ knotsBaromVisibWave heightAir tempDewpointWater temp
2016-Jul-27 19:32N 59°16' E 006°10'1 1.3
2016-Jul-27 18:30N 59°14' E 006°09'1 1.3
2016-Jul-27 17:31N 59°16' E 006°10'1 1.3
2016-Jul-27 16:31N 59°14' E 006°08'1 1.2
2016-Jul-27 15:31N 59°16' E 006°10'0 0.1
2016-Jul-27 14:31N 59°16' E 006°10'1 1.3
2016-Jul-27 13:30N 59°14' E 006°09'1 1.3
2016-Jul-27 12:30N 59°16' E 006°10'0 0.0
2016-Jul-27 11:29N 59°16' E 006°10'0 0.0
2016-Jul-27 10:32N 59°16' E 006°10'0 0.0
2016-Jul-27 09:30N 59°16' E 006°10'0 0.3
2016-Jul-27 08:33N 59°15' E 006°10'0 0.2
2016-Jul-27 07:33N 59°16' E 006°09'0 0.1
2016-Jul-27 06:31N 59°16' E 006°10'1 1.2
2016-Jul-27 05:29N 59°15' E 006°08'0 0.4
2016-Jul-27 04:33N 59°14' E 006°09'1 0.1
2016-Jul-26 19:30N 59°16' E 006°10'0 0.1
2016-Jul-26 18:04N 59°16' E 006°09'0 0.4
2016-Jul-26 17:33N 59°15' E 006°10'1 1.2
2016-Jul-26 16:33N 59°14' E 006°09'1 1.4
2016-Jul-26 15:31N 59°16' E 006°10'0 0.0
2016-Jul-26 14:32N 59°16' E 006°10'2 1.6
2016-Jul-26 13:22N 59°15' E 006°06'2 2.2
2016-Jul-26 12:33N 59°15' E 006°10'0 0.1
2016-Jul-26 10:33N 59°16' E 006°10'0 0.4
2016-Jul-26 09:33N 59°15' E 006°10'0 0.3
2016-Jul-26 08:32N 59°16' E 006°10'0 0.1
2016-Jul-26 07:32N 59°16' E 006°09'0 0.1
2016-Jul-26 06:29N 59°16' E 006°10'1 1.4
2016-Jul-26 05:32N 59°15' E 006°08'0 0.1
2016-Jul-26 04:33N 59°14' E 006°09'2 1.4
2016-Jul-26 03:29N 59°15' E 006°06'2 0.2
2016-Jul-25 19:33N 59°15' E 006°10'1 1.2
2016-Jul-25 18:25N 59°15' E 006°07'1 1.7
2016-Jul-25 17:31N 59°16' E 006°10'1 1.1
2016-Jul-25 16:30N 59°15' E 006°09'1 1.1
2016-Jul-25 15:32N 59°16' E 006°10'0 0.1
2016-Jul-25 14:31N 59°16' E 006°10'2 1.4
2016-Jul-25 13:24N 59°15' E 006°07'2 1.8
2016-Jul-25 12:33N 59°16' E 006°10'0 0.4
2016-Jul-25 11:22N 59°15' E 006°10'1 0.6
2016-Jul-25 10:29N 59°16' E 006°10'0 0.0
2016-Jul-25 09:33N 59°16' E 006°10'0 0.0
2016-Jul-25 08:30N 59°16' E 006°10'0 0.2
2016-Jul-25 07:33N 59°16' E 006°09'0 0.1
2016-Jul-25 06:25N 59°16' E 006°10'1 1.4
2016-Jul-25 05:27N 59°15' E 006°08'0 0.5
2016-Jul-25 04:31N 59°14' E 006°08'1 1.5
2016-Jul-25 03:29N 59°15' E 006°06'2 2.5
2016-Jul-25 02:33N 59°14' E 006°10'0 0.0
2016-Jul-25 00:31N 59°14' E 006°10'1 0.3
2016-Jul-24 19:33N 59°15' E 006°10'1 1.2
2016-Jul-24 18:29N 59°15' E 006°08'1 1.4
2016-Jul-24 17:31N 59°16' E 006°10'1 1.4
2016-Jul-24 16:33N 59°14' E 006°09'1 1.1
2016-Jul-24 15:33N 59°15' E 006°10'0 0.2
2016-Jul-24 14:33N 59°16' E 006°09'1 1.3
2016-Jul-24 13:33N 59°14' E 006°09'1 1.1
2016-Jul-24 12:33N 59°15' E 006°10'0 0.3
2016-Jul-24 11:31N 59°16' E 006°10'0 0.1
2016-Jul-24 10:33N 59°16' E 006°10'0 0.1
2016-Jul-24 09:33N 59°16' E 006°10'0 0.1
2016-Jul-24 08:33N 59°15' E 006°10'0 0.2
2016-Jul-24 07:33N 59°16' E 006°09'0 0.2
2016-Jul-24 06:32N 59°16' E 006°10'2 0.2
2016-Jul-24 00:11N 59°14' E 006°10'2 0.5
2016-Jul-23 20:33N 59°16' E 006°10'0 0.3
2016-Jul-23 19:33N 59°15' E 006°10'1 1.0
2016-Jul-23 18:32N 59°14' E 006°09'1 1.3
2016-Jul-23 17:31N 59°16' E 006°10'1 1.3
2016-Jul-23 16:31N 59°14' E 006°09'1 1.4
2016-Jul-23 15:32N 59°16' E 006°10'0 0.0
2016-Jul-23 14:31N 59°16' E 006°10'1 1.4
2016-Jul-23 13:33N 59°14' E 006°09'1 1.4
2016-Jul-23 12:32N 59°16' E 006°10'0 0.1
2016-Jul-23 11:31N 59°16' E 006°10'0 0.1
2016-Jul-23 10:32N 59°16' E 006°10'0 0.1
2016-Jul-23 09:34N 59°16' E 006°10'0 0.1
2016-Jul-23 08:33N 59°16' E 006°10'0 0.0
2016-Jul-23 07:33N 59°16' E 006°10'0 0.0
2016-Jul-23 06:33N 59°16' E 006°10'0 0.0
2016-Jul-22 19:32N 59°16' E 006°10'2 1.5
2016-Jul-22 18:24N 59°15' E 006°07'2 1.9
2016-Jul-22 17:34N 59°15' E 006°10'0 0.2
2016-Jul-22 16:04N 59°16' E 006°09'0 0.3
2016-Jul-22 15:33N 59°15' E 006°10'0 0.2
2016-Jul-22 14:33N 59°16' E 006°10'0 0.0
2016-Jul-22 12:32N 59°16' E 006°10'0 0.0
2016-Jul-22 11:30N 59°16' E 006°10'0 0.0
2016-Jul-22 10:29N 59°16' E 006°10'0 0.3
2016-Jul-22 09:33N 59°15' E 006°10'0 0.1
2016-Jul-22 08:32N 59°16' E 006°10'0 0.0
2016-Jul-22 07:33N 59°16' E 006°10'2 0.5
2016-Jul-22 03:32N 59°15' E 006°06'2 0.3
2016-Jul-21 19:31N 59°16' E 006°10'0 0.2
2016-Jul-21 17:33N 59°15' E 006°10'1 0.6
2016-Jul-21 16:07N 59°15' E 006°08'1 1.6
2016-Jul-21 15:33N 59°16' E 006°10'0 0.0
2016-Jul-21 14:31N 59°16' E 006°10'1 1.3
2016-Jul-21 13:28N 59°15' E 006°08'1 1.4
2016-Jul-21 12:32N 59°16' E 006°10'0 0.4
2016-Jul-21 11:33N 59°15' E 006°10'0 0.4
2016-Jul-21 10:33N 59°16' E 006°10'0 0.1
2016-Jul-21 09:32N 59°16' E 006°10'0 0.1
2016-Jul-21 08:33N 59°16' E 006°10'0 0.1
2016-Jul-21 07:32N 59°16' E 006°10'1 0.6
2016-Jul-21 06:33N 59°15' E 006°09'1 0.8
2016-Jul-21 05:29N 59°15' E 006°08'0 0.3
2016-Jul-21 04:29N 59°15' E 006°08'1 0.2
2016-Jul-20 22:29N 59°14' E 006°10'1 0.4
2016-Jul-20 19:33N 59°15' E 006°09'1 1.0
2016-Jul-20 18:33N 59°14' E 006°09'1 1.4
2016-Jul-20 17:31N 59°16' E 006°10'1 1.3
2016-Jul-20 16:31N 59°14' E 006°09'1 1.1
2016-Jul-20 15:33N 59°15' E 006°10'0 0.2
2016-Jul-20 14:33N 59°16' E 006°10'1 1.2
2016-Jul-20 13:27N 59°15' E 006°08'1 1.4
2016-Jul-20 12:31N 59°16' E 006°10'0 0.5
2016-Jul-20 11:33N 59°15' E 006°10'0 0.1
2016-Jul-20 09:33N 59°15' E 006°10'0 0.2
2016-Jul-20 08:32N 59°16' E 006°10'0 0.2
2016-Jul-20 07:33N 59°16' E 006°09'0 0.5
2016-Jul-20 06:34N 59°15' E 006°10'1 0.8
2016-Jul-20 05:32N 59°14' E 006°09'0 0.2
2016-Jul-20 04:32N 59°14' E 006°09'1 0.7
2016-Jul-20 03:28N 59°15' E 006°07'1 0.2
2016-Jul-19 19:33N 59°15' E 006°10'0 0.2
2016-Jul-19 17:32N 59°16' E 006°10'0 0.0
2016-Jul-19 15:32N 59°16' E 006°10'0 0.1
2016-Jul-19 14:34N 59°16' E 006°10'1 1.3
2016-Jul-19 13:26N 59°15' E 006°07'1 1.6
2016-Jul-19 12:32N 59°16' E 006°10'0 0.0
2016-Jul-19 11:32N 59°16' E 006°10'0 0.1
2016-Jul-19 10:32N 59°16' E 006°10'0 0.1
2016-Jul-19 09:32N 59°16' E 006°10'0 0.1
2016-Jul-19 08:31N 59°16' E 006°10'0 0.0
2016-Jul-19 07:31N 59°16' E 006°10'1 0.4
2016-Jul-19 04:29N 59°15' E 006°08'1 0.1
2016-Jul-18 19:32N 59°16' E 006°10'0 0.0
2016-Jul-18 17:32N 59°16' E 006°10'0 0.0
2016-Jul-18 15:30N 59°16' E 006°10'0 0.0
2016-Jul-18 14:32N 59°16' E 006°10'0 0.1
2016-Jul-18 13:05N 59°16' E 006°09'0 0.3
2016-Jul-18 12:30N 59°16' E 006°10'0 0.5
2016-Jul-18 11:33N 59°15' E 006°10'0 0.1
2016-Jul-18 10:25N 59°15' E 006°10'1 0.6
2016-Jul-18 09:31N 59°16' E 006°10'0 0.1
2016-Jul-18 08:32N 59°16' E 006°10'0 0.0
2016-Jul-18 07:34N 59°16' E 006°10'0 0.1
2016-Jul-18 06:32N 59°16' E 006°10'1 1.2
2016-Jul-18 05:26N 59°15' E 006°07'1 0.7
2016-Jul-18 04:30N 59°15' E 006°08'1 1.5
2016-Jul-18 03:31N 59°15' E 006°06'2 0.4
2016-Jul-17 21:26N 59°14' E 006°10'1 0.7
2016-Jul-17 19:33N 59°15' E 006°10'  
Track history (hours):
 
Tides and Currents Weather Stations Pressure Air Temp Water Temp Dewpoint Dewpoint Depression Visibility Wind Speed Wind Dir Waves Ship Positions

Stallovarre

Last reported at 2016-Jul-27 19:32 UTC. Time now 2016-Jul-28 00:52 UTC.
Position N 59°16' E 006°10'.

Length 54 m; draft 5 m.

MMSI: 257374400.

Date/timePositionNaut miles runAvg speedWind from/ knotsBaromVisibWave heightAir tempDewpointWater temp
2016-Jul-27 19:32N 59°16' E 006°10'1 1.3
2016-Jul-27 18:30N 59°14' E 006°09'1 1.3
2016-Jul-27 17:31N 59°16' E 006°10'1 1.3
2016-Jul-27 16:31N 59°14' E 006°08'1 1.2
2016-Jul-27 15:31N 59°16' E 006°10'0 0.1
2016-Jul-27 14:31N 59°16' E 006°10'1 1.3
2016-Jul-27 13:30N 59°14' E 006°09'1 1.3
2016-Jul-27 12:30N 59°16' E 006°10'0 0.0
2016-Jul-27 11:29N 59°16' E 006°10'0 0.0
2016-Jul-27 10:32N 59°16' E 006°10'0 0.0
2016-Jul-27 09:30N 59°16' E 006°10'0 0.3
2016-Jul-27 08:33N 59°15' E 006°10'0 0.2
2016-Jul-27 07:33N 59°16' E 006°09'0 0.1
2016-Jul-27 06:31N 59°16' E 006°10'1 1.2
2016-Jul-27 05:29N 59°15' E 006°08'0 0.4
2016-Jul-27 04:33N 59°14' E 006°09'1 0.1
2016-Jul-26 19:30N 59°16' E 006°10'0 0.1
2016-Jul-26 18:04N 59°16' E 006°09'0 0.4
2016-Jul-26 17:33N 59°15' E 006°10'1 1.2
2016-Jul-26 16:33N 59°14' E 006°09'1 1.4
2016-Jul-26 15:31N 59°16' E 006°10'0 0.0
2016-Jul-26 14:32N 59°16' E 006°10'2 1.6
2016-Jul-26 13:22N 59°15' E 006°06'2 2.2
2016-Jul-26 12:33N 59°15' E 006°10'0 0.1
2016-Jul-26 10:33N 59°16' E 006°10'0 0.4
2016-Jul-26 09:33N 59°15' E 006°10'0 0.3
2016-Jul-26 08:32N 59°16' E 006°10'0 0.1
2016-Jul-26 07:32N 59°16' E 006°09'0 0.1
2016-Jul-26 06:29N 59°16' E 006°10'1 1.4
2016-Jul-26 05:32N 59°15' E 006°08'0 0.1
2016-Jul-26 04:33N 59°14' E 006°09'2 1.4
2016-Jul-26 03:29N 59°15' E 006°06'2 0.2
2016-Jul-25 19:33N 59°15' E 006°10'1 1.2
2016-Jul-25 18:25N 59°15' E 006°07'1 1.7
2016-Jul-25 17:31N 59°16' E 006°10'1 1.1
2016-Jul-25 16:30N 59°15' E 006°09'1 1.1
2016-Jul-25 15:32N 59°16' E 006°10'0 0.1
2016-Jul-25 14:31N 59°16' E 006°10'2 1.4
2016-Jul-25 13:24N 59°15' E 006°07'2 1.8
2016-Jul-25 12:33N 59°16' E 006°10'0 0.4
2016-Jul-25 11:22N 59°15' E 006°10'1 0.6
2016-Jul-25 10:29N 59°16' E 006°10'0 0.0
2016-Jul-25 09:33N 59°16' E 006°10'0 0.0
2016-Jul-25 08:30N 59°16' E 006°10'0 0.2
2016-Jul-25 07:33N 59°16' E 006°09'0 0.1
2016-Jul-25 06:25N 59°16' E 006°10'1 1.4
2016-Jul-25 05:27N 59°15' E 006°08'0 0.5
2016-Jul-25 04:31N 59°14' E 006°08'1 1.5
2016-Jul-25 03:29N 59°15' E 006°06'2 2.5
2016-Jul-25 02:33N 59°14' E 006°10'0 0.0
2016-Jul-25 00:31N 59°14' E 006°10'1 0.3
2016-Jul-24 19:33N 59°15' E 006°10'1 1.2
2016-Jul-24 18:29N 59°15' E 006°08'1 1.4
2016-Jul-24 17:31N 59°16' E 006°10'1 1.4
2016-Jul-24 16:33N 59°14' E 006°09'1 1.1
2016-Jul-24 15:33N 59°15' E 006°10'0 0.2
2016-Jul-24 14:33N 59°16' E 006°09'1 1.3
2016-Jul-24 13:33N 59°14' E 006°09'1 1.1
2016-Jul-24 12:33N 59°15' E 006°10'0 0.3
2016-Jul-24 11:31N 59°16' E 006°10'0 0.1
2016-Jul-24 10:33N 59°16' E 006°10'0 0.1
2016-Jul-24 09:33N 59°16' E 006°10'0 0.1
2016-Jul-24 08:33N 59°15' E 006°10'0 0.2
2016-Jul-24 07:33N 59°16' E 006°09'0 0.2
2016-Jul-24 06:32N 59°16' E 006°10'2 0.2
2016-Jul-24 00:11N 59°14' E 006°10'2 0.5
2016-Jul-23 20:33N 59°16' E 006°10'0 0.3
2016-Jul-23 19:33N 59°15' E 006°10'1 1.0
2016-Jul-23 18:32N 59°14' E 006°09'1 1.3
2016-Jul-23 17:31N 59°16' E 006°10'1 1.3
2016-Jul-23 16:31N 59°14' E 006°09'1 1.4
2016-Jul-23 15:32N 59°16' E 006°10'0 0.0
2016-Jul-23 14:31N 59°16' E 006°10'1 1.4
2016-Jul-23 13:33N 59°14' E 006°09'1 1.4
2016-Jul-23 12:32N 59°16' E 006°10'0 0.1
2016-Jul-23 11:31N 59°16' E 006°10'0 0.1
2016-Jul-23 10:32N 59°16' E 006°10'0 0.1
2016-Jul-23 09:34N 59°16' E 006°10'0 0.1
2016-Jul-23 08:33N 59°16' E 006°10'0 0.0
2016-Jul-23 07:33N 59°16' E 006°10'0 0.0
2016-Jul-23 06:33N 59°16' E 006°10'0 0.0
2016-Jul-22 19:32N 59°16' E 006°10'2 1.5
2016-Jul-22 18:24N 59°15' E 006°07'2 1.9
2016-Jul-22 17:34N 59°15' E 006°10'0 0.2
2016-Jul-22 16:04N 59°16' E 006°09'0 0.3
2016-Jul-22 15:33N 59°15' E 006°10'0 0.2
2016-Jul-22 14:33N 59°16' E 006°10'0 0.0
2016-Jul-22 12:32N 59°16' E 006°10'0 0.0
2016-Jul-22 11:30N 59°16' E 006°10'0 0.0
2016-Jul-22 10:29N 59°16' E 006°10'0 0.3
2016-Jul-22 09:33N 59°15' E 006°10'0 0.1
2016-Jul-22 08:32N 59°16' E 006°10'0 0.0
2016-Jul-22 07:33N 59°16' E 006°10'2 0.5
2016-Jul-22 03:32N 59°15' E 006°06'2 0.3
2016-Jul-21 19:31N 59°16' E 006°10'0 0.2
2016-Jul-21 17:33N 59°15' E 006°10'1 0.6
2016-Jul-21 16:07N 59°15' E 006°08'1 1.6
2016-Jul-21 15:33N 59°16' E 006°10'0 0.0
2016-Jul-21 14:31N 59°16' E 006°10'1 1.3
2016-Jul-21 13:28N 59°15' E 006°08'1 1.4
2016-Jul-21 12:32N 59°16' E 006°10'0 0.4
2016-Jul-21 11:33N 59°15' E 006°10'0 0.4
2016-Jul-21 10:33N 59°16' E 006°10'0 0.1
2016-Jul-21 09:32N 59°16' E 006°10'0 0.1
2016-Jul-21 08:33N 59°16' E 006°10'0 0.1
2016-Jul-21 07:32N 59°16' E 006°10'1 0.6
2016-Jul-21 06:33N 59°15' E 006°09'1 0.8
2016-Jul-21 05:29N 59°15' E 006°08'0 0.3
2016-Jul-21 04:29N 59°15' E 006°08'1 0.2
2016-Jul-20 22:29N 59°14' E 006°10'1 0.4
2016-Jul-20 19:33N 59°15' E 006°09'1 1.0
2016-Jul-20 18:33N 59°14' E 006°09'1 1.4
2016-Jul-20 17:31N 59°16' E 006°10'1 1.3
2016-Jul-20 16:31N 59°14' E 006°09'1 1.1
2016-Jul-20 15:33N 59°15' E 006°10'0 0.2
2016-Jul-20 14:33N 59°16' E 006°10'1 1.2
2016-Jul-20 13:27N 59°15' E 006°08'1 1.4
2016-Jul-20 12:31N 59°16' E 006°10'0 0.5
2016-Jul-20 11:33N 59°15' E 006°10'0 0.1
2016-Jul-20 09:33N 59°15' E 006°10'0 0.2
2016-Jul-20 08:32N 59°16' E 006°10'0 0.2
2016-Jul-20 07:33N 59°16' E 006°09'0 0.5
2016-Jul-20 06:34N 59°15' E 006°10'1 0.8
2016-Jul-20 05:32N 59°14' E 006°09'0 0.2
2016-Jul-20 04:32N 59°14' E 006°09'1 0.7
2016-Jul-20 03:28N 59°15' E 006°07'1 0.2
2016-Jul-19 19:33N 59°15' E 006°10'0 0.2
2016-Jul-19 17:32N 59°16' E 006°10'0 0.0
2016-Jul-19 15:32N 59°16' E 006°10'0 0.1
2016-Jul-19 14:34N 59°16' E 006°10'1 1.3
2016-Jul-19 13:26N 59°15' E 006°07'1 1.6
2016-Jul-19 12:32N 59°16' E 006°10'0 0.0
2016-Jul-19 11:32N 59°16' E 006°10'0 0.1
2016-Jul-19 10:32N 59°16' E 006°10'0 0.1
2016-Jul-19 09:32N 59°16' E 006°10'0 0.1
2016-Jul-19 08:31N 59°16' E 006°10'0 0.0
2016-Jul-19 07:31N 59°16' E 006°10'1 0.4
2016-Jul-19 04:29N 59°15' E 006°08'1 0.1
2016-Jul-18 19:32N 59°16' E 006°10'0 0.0
2016-Jul-18 17:32N 59°16' E 006°10'0 0.0
2016-Jul-18 15:30N 59°16' E 006°10'0 0.0
2016-Jul-18 14:32N 59°16' E 006°10'0 0.1
2016-Jul-18 13:05N 59°16' E 006°09'0 0.3
2016-Jul-18 12:30N 59°16' E 006°10'0 0.5
2016-Jul-18 11:33N 59°15' E 006°10'0 0.1
2016-Jul-18 10:25N 59°15' E 006°10'1 0.6
2016-Jul-18 09:31N 59°16' E 006°10'0 0.1
2016-Jul-18 08:32N 59°16' E 006°10'0 0.0
2016-Jul-18 07:34N 59°16' E 006°10'0 0.1
2016-Jul-18 06:32N 59°16' E 006°10'1 1.2
2016-Jul-18 05:26N 59°15' E 006°07'1 0.7
2016-Jul-18 04:30N 59°15' E 006°08'1 1.5
2016-Jul-18 03:31N 59°15' E 006°06'2 0.4
2016-Jul-17 21:26N 59°14' E 006°10'1 0.7
2016-Jul-17 19:33N 59°15' E 006°10'  

Dump ship's entire track history